createdAt,value
2022-12-26T00:01:26.419Z,82.42
2022-12-26T00:06:30.346Z,82.71
2022-12-26T00:11:32.113Z,82.63
2022-12-26T00:16:42.164Z,82.64
2022-12-26T00:21:43.939Z,82.87
2022-12-26T00:26:45.696Z,82.99
2022-12-26T00:31:47.579Z,83.11
2022-12-26T00:36:49.510Z,82.95
2022-12-26T00:41:51.311Z,82.87
2022-12-26T00:46:53.087Z,82.76
2022-12-26T00:51:54.982Z,82.93
2022-12-26T00:56:56.685Z,82.69
2022-12-26T01:01:58.543Z,82.36
2022-12-26T01:07:00.685Z,82.34
2022-12-26T01:12:02.420Z,82.14
2022-12-26T01:17:04.111Z,82.17
2022-12-26T01:22:05.861Z,82.06
2022-12-26T01:27:07.625Z,82.02
2022-12-26T01:32:09.455Z,82.04
2022-12-26T01:37:13.782Z,81.81
2022-12-26T01:42:21.574Z,81.91
2022-12-26T01:47:25.616Z,81.82
2022-12-26T01:52:38.727Z,81.70
2022-12-26T01:57:47.761Z,81.55
2022-12-26T02:03:09.174Z,81.46
2022-12-26T02:08:23.111Z,81.41
2022-12-26T02:13:25.303Z,81.71
2022-12-26T02:18:26.999Z,82.07
2022-12-26T02:24:16.730Z,81.86
2022-12-26T02:29:31.624Z,81.97
2022-12-26T02:35:17.138Z,82.21
2022-12-26T02:40:32.113Z,82.21
2022-12-26T02:46:20.505Z,82.26
2022-12-26T02:52:15.710Z,82.34
2022-12-26T02:57:40.927Z,82.71
2022-12-26T03:03:17.760Z,82.79
2022-12-26T03:08:47.140Z,83.02
2022-12-26T03:13:50.905Z,83.02
2022-12-26T03:19:00.605Z,83.04
2022-12-26T03:24:02.763Z,82.77
2022-12-26T03:29:23.258Z,82.70
2022-12-26T03:34:25.737Z,83.03
2022-12-26T03:39:53.902Z,83.04
2022-12-26T03:45:27.908Z,82.33
2022-12-26T03:51:03.148Z,82.67
2022-12-26T03:56:36.237Z,83.16
2022-12-26T04:01:59.071Z,83.56
2022-12-26T04:07:30.112Z,83.77
2022-12-26T04:12:55.180Z,84.21
2022-12-26T04:18:22.534Z,84.14
2022-12-26T04:24:04.158Z,83.90
2022-12-26T04:29:24.660Z,83.99
2022-12-26T04:34:52.218Z,83.95
2022-12-26T04:40:15.281Z,83.81
2022-12-26T04:45:17.973Z,83.90
2022-12-26T04:50:19.686Z,83.72
2022-12-26T04:55:21.508Z,83.41
2022-12-26T05:00:25.437Z,83.50
2022-12-26T05:05:45.949Z,83.47
2022-12-26T05:10:47.844Z,83.41
2022-12-26T05:16:08.583Z,83.34
2022-12-26T05:21:36.856Z,83.19
2022-12-26T05:26:57.271Z,83.12
2022-12-26T05:31:59.170Z,83.19
2022-12-26T05:37:02.583Z,83.21
2022-12-26T05:42:04.472Z,82.97
2022-12-26T05:47:06.194Z,83.00
2022-12-26T05:52:08.134Z,82.89
2022-12-26T05:57:09.923Z,82.82
2022-12-26T06:02:11.779Z,82.62
2022-12-26T06:07:13.949Z,82.56
2022-12-26T06:12:15.655Z,82.38
2022-12-26T06:17:17.430Z,82.19
2022-12-26T06:22:19.167Z,82.06
2022-12-26T06:27:21.024Z,81.90
2022-12-26T06:32:22.861Z,81.70
2022-12-26T06:37:24.627Z,81.48
2022-12-26T06:42:26.327Z,81.27
2022-12-26T06:47:29.046Z,81.19
2022-12-26T06:52:30.728Z,81.06
2022-12-26T06:57:32.471Z,80.98
2022-12-26T07:02:34.310Z,80.86
2022-12-26T07:07:36.185Z,80.73
2022-12-26T07:12:37.980Z,80.68
2022-12-26T07:17:39.791Z,80.50
2022-12-26T07:22:41.527Z,80.31
2022-12-26T07:27:43.296Z,80.27
2022-12-26T07:32:45.033Z,80.16
2022-12-26T07:37:46.789Z,80.13
2022-12-26T07:42:48.516Z,80.05
2022-12-26T07:47:54.347Z,80.10
2022-12-26T07:52:56.316Z,80.36
2022-12-26T07:57:58.034Z,80.42
2022-12-26T08:03:06.930Z,80.52
2022-12-26T08:08:09.371Z,80.55
2022-12-26T08:13:11.135Z,80.61
2022-12-26T08:18:12.858Z,80.53
2022-12-26T08:23:14.683Z,80.58
2022-12-26T08:28:16.763Z,80.42
2022-12-26T08:33:18.700Z,80.38
2022-12-26T08:38:20.411Z,80.21
2022-12-26T08:44:16.440Z,80.24
2022-12-26T08:48:46.959Z,80.43
2022-12-26T08:53:50.141Z,80.43
2022-12-26T08:58:51.966Z,80.73
2022-12-26T09:03:55.974Z,80.88
2022-12-26T09:08:59.416Z,81.16
2022-12-26T09:14:03.047Z,81.51
2022-12-26T09:19:06.354Z,81.75
2022-12-26T09:24:12.365Z,81.86
2022-12-26T09:29:14.737Z,82.06
2022-12-26T09:34:17.137Z,82.14
2022-12-26T09:39:18.830Z,82.17
2022-12-26T09:44:28.067Z,82.17
2022-12-26T09:49:34.681Z,82.16
2022-12-26T09:54:43.704Z,82.20
2022-12-26T09:59:58.119Z,82.11
2022-12-26T10:04:59.961Z,82.12
2022-12-26T10:10:10.957Z,81.90
2022-12-26T10:15:27.557Z,81.77
2022-12-26T10:20:47.779Z,81.69
2022-12-26T10:25:55.777Z,81.89
2022-12-26T10:31:02.694Z,81.79
2022-12-26T10:36:04.806Z,81.90
2022-12-26T10:41:14.520Z,81.80
2022-12-26T10:46:30.209Z,81.88
2022-12-26T10:51:32.883Z,81.86
2022-12-26T10:56:34.623Z,81.78
2022-12-26T11:01:39.412Z,81.67
2022-12-26T11:06:43.399Z,81.62
2022-12-26T11:11:51.601Z,81.46
2022-12-26T11:16:54.435Z,81.41
2022-12-26T11:22:20.595Z,81.20
2022-12-26T11:27:24.185Z,81.07
2022-12-26T11:32:27.914Z,80.90
2022-12-26T11:37:34.325Z,80.65
2022-12-26T11:42:36.488Z,80.44
2022-12-26T11:47:45.538Z,80.26
2022-12-26T11:52:56.446Z,80.06
2022-12-26T11:58:10.531Z,79.89
2022-12-26T12:03:16.980Z,79.71
2022-12-26T12:08:21.704Z,79.35
2022-12-26T12:13:58.753Z,79.16
2022-12-26T12:19:03.533Z,78.81
2022-12-26T12:24:40.620Z,78.54
2022-12-26T12:29:51.252Z,78.14
2022-12-26T12:35:21.857Z,77.84
2022-12-26T12:40:32.658Z,77.51
2022-12-26T12:45:45.966Z,77.32
2022-12-26T12:51:24.132Z,76.99
2022-12-26T12:56:57.020Z,76.99
2022-12-26T13:02:09.638Z,76.74
2022-12-26T13:07:27.188Z,76.57
2022-12-26T13:12:48.180Z,76.55
2022-12-26T13:17:57.967Z,76.64
2022-12-26T13:23:24.174Z,76.47
2022-12-26T13:28:32.496Z,76.33
2022-12-26T13:33:35.138Z,76.05
2022-12-26T13:38:55.960Z,75.92
2022-12-26T13:44:24.598Z,75.98
2022-12-26T13:49:39.018Z,75.89
2022-12-26T13:54:46.837Z,75.76
2022-12-26T13:59:56.718Z,75.60
2022-12-26T14:05:21.363Z,75.63
2022-12-26T14:10:26.203Z,75.53
2022-12-26T14:15:56.419Z,75.67
2022-12-26T14:21:13.459Z,75.90
2022-12-26T14:26:50.388Z,76.07
2022-12-26T14:32:30.099Z,76.20
2022-12-26T14:37:44.619Z,76.14
2022-12-26T14:43:16.694Z,75.97
2022-12-26T14:48:18.391Z,75.85
2022-12-26T14:53:29.490Z,75.81
2022-12-26T14:58:31.237Z,75.80
2022-12-26T15:04:09.652Z,75.77
2022-12-26T15:09:45.759Z,75.79
2022-12-26T15:15:22.035Z,75.70
2022-12-26T15:20:57.896Z,75.66
2022-12-26T15:26:33.083Z,75.60
2022-12-26T15:31:44.468Z,75.57
2022-12-26T15:36:55.434Z,75.39
2022-12-26T15:42:13.179Z,75.41
2022-12-26T15:47:44.671Z,75.44
2022-12-26T15:52:58.243Z,75.39
2022-12-26T15:58:15.259Z,75.31
2022-12-26T16:03:45.489Z,75.43
2022-12-26T16:08:58.387Z,75.33
2022-12-26T16:14:03.699Z,75.53
2022-12-26T16:19:38.097Z,75.66
2022-12-26T16:24:42.538Z,76.89
2022-12-26T16:30:02.097Z,78.48
2022-12-26T16:35:16.417Z,79.40
2022-12-26T16:40:24.149Z,80.32
2022-12-26T16:45:27.619Z,80.56
2022-12-26T16:50:32.761Z,81.15
2022-12-26T16:55:42.119Z,81.85
2022-12-26T17:00:51.718Z,82.38
2022-12-26T17:05:53.586Z,82.68
2022-12-26T17:10:55.473Z,82.76
2022-12-26T17:15:59.880Z,83.41
2022-12-26T17:21:20.230Z,83.77
2022-12-26T17:26:24.368Z,84.09
2022-12-26T17:31:33.010Z,84.27
2022-12-26T17:41:59.601Z,84.43
2022-12-26T17:47:06.768Z,84.64
2022-12-26T17:52:14.103Z,84.67
2022-12-26T17:57:22.700Z,84.49
2022-12-26T18:02:25.144Z,84.62
2022-12-26T18:07:31.428Z,84.41
2022-12-26T18:12:33.618Z,84.51
2022-12-26T18:17:35.440Z,84.50
2022-12-26T18:22:37.258Z,84.34
2022-12-26T18:27:39.020Z,84.45
2022-12-26T18:32:41.157Z,84.42
2022-12-26T18:37:48.029Z,84.34
2022-12-26T18:42:50.240Z,84.65
2022-12-26T18:47:52.164Z,84.55
2022-12-26T18:52:55.380Z,84.49
2022-12-26T18:57:57.961Z,84.87
2022-12-26T19:02:59.641Z,84.76
2022-12-26T19:08:02.478Z,84.71
2022-12-26T19:13:05.950Z,84.75
2022-12-26T19:18:08.337Z,84.54
2022-12-26T19:23:10.625Z,84.38
2022-12-26T19:28:12.880Z,84.05
2022-12-26T19:33:14.540Z,83.92
2022-12-26T19:38:16.247Z,84.21
2022-12-26T19:43:18.006Z,84.39
2022-12-26T19:48:19.791Z,84.42
2022-12-26T19:53:21.781Z,84.29
2022-12-26T19:58:24.181Z,83.97
2022-12-26T20:03:25.946Z,84.09
2022-12-26T20:08:27.708Z,84.09
2022-12-26T20:13:29.376Z,84.08
2022-12-26T20:18:31.584Z,84.61
2022-12-26T20:23:35.780Z,84.18
2022-12-26T20:28:37.883Z,83.94
2022-12-26T20:33:41.909Z,83.75
2022-12-26T20:38:46.018Z,84.02
2022-12-26T20:43:49.248Z,84.47
2022-12-26T20:48:52.836Z,84.81
2022-12-26T20:53:54.561Z,85.24
2022-12-26T20:58:59.671Z,85.30
2022-12-26T21:04:01.834Z,85.18
2022-12-26T21:09:06.380Z,85.18
2022-12-26T21:14:12.845Z,85.15
2022-12-26T21:19:17.172Z,85.14
2022-12-26T21:24:22.256Z,85.39
2022-12-26T21:29:30.904Z,85.44
2022-12-26T21:34:33.875Z,85.41
2022-12-26T21:39:36.824Z,85.32
2022-12-26T21:44:38.725Z,85.38
2022-12-26T21:49:41.017Z,85.33
2022-12-26T21:55:01.650Z,85.28
2022-12-26T22:00:04.822Z,85.22
2022-12-26T22:05:07.366Z,85.24
2022-12-26T22:10:29.753Z,85.28
2022-12-26T22:15:51.033Z,85.30
2022-12-26T22:20:52.811Z,85.23
2022-12-26T22:25:55.836Z,85.20
2022-12-26T22:30:59.349Z,85.16
2022-12-26T22:36:08.824Z,85.05
2022-12-26T22:41:10.643Z,84.97
2022-12-26T22:46:13.545Z,84.87
2022-12-26T22:51:21.482Z,84.66
2022-12-26T22:56:23.327Z,84.55
2022-12-26T23:01:25.202Z,84.50
2022-12-26T23:06:35.996Z,84.48
2022-12-26T23:11:38.132Z,84.40
2022-12-26T23:16:56.334Z,84.41
2022-12-26T23:22:00.370Z,84.33
2022-12-26T23:27:25.589Z,84.36
2022-12-26T23:32:27.613Z,84.41
2022-12-26T23:37:29.333Z,84.40
2022-12-26T23:42:31.179Z,84.42
2022-12-26T23:47:36.050Z,84.40
2022-12-26T23:52:37.724Z,84.50
2022-12-26T23:57:39.563Z,84.59
